createdAt,value
2022-11-09T00:05:16.038Z,7.18
2022-11-09T00:10:47.809Z,7.15
2022-11-09T00:21:51.856Z,7.09
2022-11-09T00:27:23.440Z,7.04
2022-11-09T00:32:55.241Z,6.99
2022-11-09T00:44:00.634Z,6.87
2022-11-09T00:49:34.998Z,6.80
2022-11-09T00:55:12.628Z,6.73
2022-11-09T01:00:44.172Z,6.67
2022-11-09T01:06:16.058Z,6.62
2022-11-09T01:22:51.260Z,6.48
2022-11-09T01:28:22.971Z,6.44
2022-11-09T01:39:26.579Z,6.33
2022-11-09T01:45:05.287Z,6.28
2022-11-09T01:50:42.836Z,6.24
2022-11-09T01:56:14.624Z,6.19
2022-11-09T02:01:48.125Z,6.15
2022-11-09T02:07:19.829Z,6.11
2022-11-09T02:12:57.251Z,6.06
2022-11-09T02:18:35.348Z,6.01
2022-11-09T02:24:13.225Z,5.96
2022-11-09T02:29:50.955Z,5.90
2022-11-09T02:35:22.785Z,5.85
2022-11-09T02:40:54.563Z,5.79
2022-11-09T02:46:26.436Z,5.74
2022-11-09T02:52:04.112Z,5.69
2022-11-09T02:57:35.674Z,5.66
2022-11-09T03:03:07.442Z,5.62
2022-11-09T03:08:39.238Z,5.59
2022-11-09T03:14:11.072Z,5.56
2022-11-09T03:19:42.848Z,5.52
2022-11-09T03:25:14.617Z,5.49
2022-11-09T03:30:46.816Z,5.47
2022-11-09T03:36:18.845Z,5.46
2022-11-09T03:41:50.532Z,5.45
2022-11-09T03:47:22.618Z,5.45
2022-11-09T03:53:00.368Z,5.44
2022-11-09T03:58:38.242Z,5.43
2022-11-09T04:04:10.333Z,5.43
2022-11-09T04:09:47.894Z,5.43
2022-11-09T04:15:19.824Z,5.43
2022-11-09T04:20:51.815Z,5.42
2022-11-09T04:26:24.024Z,5.43
2022-11-09T04:31:56.063Z,5.47
2022-11-09T04:37:33.821Z,5.52
2022-11-09T04:43:05.572Z,5.56
2022-11-09T04:48:37.457Z,5.57
2022-11-09T04:54:09.263Z,5.58
2022-11-09T04:59:46.951Z,5.60
2022-11-09T05:05:24.576Z,5.63
2022-11-09T05:10:58.417Z,5.65
2022-11-09T05:16:36.363Z,5.66
2022-11-09T05:22:08.299Z,5.67
2022-11-09T05:27:40.111Z,5.67
2022-11-09T05:33:11.624Z,5.70
2022-11-09T05:38:43.416Z,5.76
2022-11-09T05:44:21.142Z,5.90
2022-11-09T05:49:59.014Z,5.98
2022-11-09T05:55:36.719Z,5.98
2022-11-09T06:01:14.116Z,6.00
2022-11-09T06:06:51.627Z,6.01
2022-11-09T06:12:23.772Z,5.96
2022-11-09T06:18:01.101Z,5.94
2022-11-09T06:23:32.842Z,5.94
2022-11-09T06:29:04.344Z,5.94
2022-11-09T06:34:36.047Z,5.94
2022-11-09T06:40:07.679Z,5.97
2022-11-09T06:45:39.513Z,6.07
2022-11-09T06:51:17.185Z,6.32
2022-11-09T06:56:48.907Z,6.76
2022-11-09T07:02:20.786Z,7.30
2022-11-09T07:07:52.662Z,7.80
2022-11-09T07:10:16.232Z,8.21
2022-11-09T07:15:53.564Z,8.42
2022-11-09T07:21:31.561Z,8.53
2022-11-09T07:27:09.086Z,8.57
2022-11-09T07:33:07.354Z,8.57
2022-11-09T07:38:12.555Z,8.57
2022-11-09T07:43:46.567Z,8.58
2022-11-09T07:49:18.334Z,8.62
2022-11-09T07:54:52.333Z,8.71
2022-11-09T08:00:23.756Z,8.84
2022-11-09T08:05:54.130Z,9.02
2022-11-09T08:11:25.570Z,9.23
2022-11-09T08:16:57.926Z,9.46
2022-11-09T08:22:29.798Z,9.69
2022-11-09T08:28:01.398Z,9.90
2022-11-09T08:33:33.239Z,10.09
2022-11-09T08:39:05.554Z,10.27
2022-11-09T08:44:37.418Z,10.44
2022-11-09T08:50:09.332Z,10.62
2022-11-09T08:55:43.792Z,10.82
2022-11-09T09:01:16.892Z,11.04
2022-11-09T09:06:45.344Z,11.27
2022-11-09T09:12:16.886Z,11.51
2022-11-09T09:17:49.360Z,11.75
2022-11-09T09:23:22.005Z,11.99
2022-11-09T09:28:53.852Z,12.23
2022-11-09T09:34:25.705Z,12.48
2022-11-09T09:39:58.038Z,12.75
2022-11-09T09:45:30.050Z,13.03
2022-11-09T09:51:02.211Z,13.31
2022-11-09T09:56:34.148Z,13.57
2022-11-09T10:02:06.492Z,13.82
2022-11-09T10:07:38.723Z,14.12
2022-11-09T10:13:10.715Z,14.49
2022-11-09T10:18:42.994Z,14.87
2022-11-09T10:24:15.152Z,15.23
2022-11-09T10:35:17.363Z,15.82
2022-11-09T10:40:49.782Z,16.06
2022-11-09T10:46:21.800Z,16.26
2022-11-09T10:51:54.124Z,16.45
2022-11-09T10:57:26.541Z,16.66
2022-11-09T11:02:58.666Z,16.86
2022-11-09T11:08:30.957Z,17.04
2022-11-09T11:14:02.913Z,17.20
2022-11-09T11:19:35.256Z,17.33
2022-11-09T11:30:37.037Z,17.55
2022-11-09T11:41:38.706Z,17.70
2022-11-09T11:47:10.614Z,17.77
2022-11-09T11:52:42.949Z,17.84
2022-11-09T11:58:15.093Z,17.96
2022-11-09T12:03:50.575Z,18.08
2022-11-09T12:09:19.636Z,18.18
2022-11-09T12:14:51.761Z,18.25
2022-11-09T12:20:23.625Z,18.33
2022-11-09T12:25:55.822Z,18.37
2022-11-09T12:31:28.410Z,18.38
2022-11-09T12:37:00.409Z,18.40
2022-11-09T12:42:32.834Z,18.40
2022-11-09T12:48:05.151Z,18.35
2022-11-09T12:53:37.484Z,18.31
2022-11-09T12:59:09.598Z,18.25
2022-11-09T13:04:41.460Z,18.09
2022-11-09T13:10:13.550Z,17.94
2022-11-09T13:15:45.220Z,17.88
2022-11-09T13:21:17.400Z,17.83
2022-11-09T13:26:49.718Z,17.79
2022-11-09T13:32:21.923Z,17.70
2022-11-09T13:37:53.626Z,17.62
2022-11-09T13:43:25.764Z,17.57
2022-11-09T13:48:57.893Z,17.53
2022-11-09T13:54:29.756Z,17.49
2022-11-09T14:00:01.752Z,17.45
2022-11-09T14:05:33.615Z,17.42
2022-11-09T14:11:05.737Z,17.40
2022-11-09T14:16:37.713Z,17.37
2022-11-09T14:22:09.972Z,17.32
2022-11-09T14:27:41.889Z,17.28
2022-11-09T14:33:13.859Z,17.22
2022-11-09T14:38:46.014Z,17.17
2022-11-09T14:44:18.321Z,17.09
2022-11-09T14:49:51.091Z,17.03
2022-11-09T14:55:23.473Z,17.00
2022-11-09T15:00:55.744Z,16.99
2022-11-09T15:06:27.600Z,16.91
2022-11-09T15:11:59.406Z,16.77
2022-11-09T15:17:31.405Z,16.66
2022-11-09T15:23:03.415Z,16.54
2022-11-09T15:28:35.402Z,16.41
2022-11-09T15:34:07.208Z,16.28
2022-11-09T15:39:38.736Z,16.13
2022-11-09T15:45:10.892Z,15.97
2022-11-09T15:50:42.909Z,15.80
2022-11-09T15:56:15.256Z,15.64
2022-11-09T16:01:47.094Z,15.50
2022-11-09T16:07:19.227Z,15.36
2022-11-09T16:12:51.444Z,15.26
2022-11-09T16:18:26.107Z,15.16
2022-11-09T16:23:58.661Z,15.04
2022-11-09T16:40:27.851Z,14.66
2022-11-09T16:46:00.037Z,14.58
2022-11-09T16:51:32.241Z,14.52
2022-11-09T16:57:04.407Z,14.47
2022-11-09T17:02:36.608Z,14.44
2022-11-09T17:08:08.788Z,14.43
2022-11-09T17:13:40.697Z,14.42
2022-11-09T17:19:12.774Z,14.39
2022-11-09T17:24:45.171Z,14.36
2022-11-09T17:30:18.042Z,14.31
2022-11-09T17:35:50.176Z,14.26
2022-11-09T17:41:22.214Z,14.19
2022-11-09T17:46:54.327Z,14.10
2022-11-09T17:52:26.705Z,14.00
2022-11-09T17:57:58.938Z,13.90
2022-11-09T18:03:31.338Z,13.80
2022-11-09T18:09:39.153Z,13.70
2022-11-09T18:14:35.274Z,13.59
2022-11-09T18:20:06.749Z,13.48
2022-11-09T18:25:38.732Z,13.39
2022-11-09T18:31:10.582Z,13.30
2022-11-09T18:36:42.337Z,13.22
2022-11-09T18:42:14.229Z,13.13
2022-11-09T18:47:46.385Z,13.06
2022-11-09T18:53:18.448Z,13.00
2022-11-09T18:58:50.439Z,12.95
2022-11-09T19:04:22.249Z,12.90
2022-11-09T19:09:56.675Z,12.85
2022-11-09T19:20:55.880Z,12.76
2022-11-09T19:26:28.218Z,12.71
2022-11-09T19:32:00.678Z,12.67
2022-11-09T19:37:32.931Z,12.63
2022-11-09T19:43:04.953Z,12.60
2022-11-09T19:48:36.757Z,12.58
2022-11-09T19:54:09.236Z,12.55
2022-11-09T19:59:41.349Z,12.52
2022-11-09T20:05:13.997Z,12.51
2022-11-09T20:10:45.819Z,12.48
2022-11-09T20:16:17.825Z,12.46
2022-11-09T20:21:51.352Z,12.44
2022-11-09T20:24:02.936Z,11.99
2022-11-09T20:29:34.768Z,12.16
2022-11-09T20:35:06.376Z,12.22
2022-11-09T20:40:38.534Z,12.24
2022-11-09T20:46:10.545Z,12.24
2022-11-09T20:51:42.732Z,12.22
2022-11-09T20:57:15.334Z,12.20
2022-11-09T21:02:46.815Z,12.18
2022-11-09T21:08:19.023Z,12.16
2022-11-09T21:13:50.693Z,12.13
2022-11-09T21:19:22.517Z,12.13
2022-11-09T21:24:54.212Z,12.14
2022-11-09T21:30:26.087Z,12.14
2022-11-09T21:35:58.295Z,12.13
2022-11-09T21:41:29.896Z,12.13
2022-11-09T21:47:01.954Z,12.12
2022-11-09T21:52:33.777Z,12.11
2022-11-09T21:58:05.799Z,12.11
2022-11-09T22:03:37.787Z,12.11
2022-11-09T22:09:09.285Z,12.10
2022-11-09T22:14:41.192Z,12.11
2022-11-09T22:20:12.764Z,12.10
2022-11-09T22:25:47.947Z,12.06
2022-11-09T22:31:16.507Z,12.02
2022-11-09T22:36:48.115Z,12.00
2022-11-09T22:42:20.371Z,11.98
2022-11-09T22:47:52.418Z,11.96
2022-11-09T22:53:24.366Z,11.94
2022-11-09T22:58:56.668Z,11.92
2022-11-09T23:04:28.884Z,11.90
2022-11-09T23:10:00.724Z,11.87
2022-11-09T23:15:33.400Z,11.85
2022-11-09T23:21:05.437Z,11.82
2022-11-09T23:26:37.155Z,11.80
2022-11-09T23:32:08.831Z,11.78
2022-11-09T23:37:40.521Z,11.78
2022-11-09T23:43:12.411Z,11.77
2022-11-09T23:48:44.057Z,11.75
2022-11-09T23:54:15.845Z,11.73
2022-11-09T23:59:47.548Z,11.73
